createdAt,value
2019-03-30T00:00:29.802Z,10.15
2019-03-30T00:01:08.504Z,11.05
2019-03-30T00:01:42.233Z,9.55
2019-03-30T00:02:16.362Z,10.90
2019-03-30T00:02:50.109Z,10.70
2019-03-30T00:03:23.789Z,9.88
2019-03-30T00:03:57.617Z,10.82
2019-03-30T00:04:31.378Z,11.03
2019-03-30T00:05:05.286Z,10.50
2019-03-30T00:05:39.059Z,10.85
2019-03-30T00:06:12.853Z,11.70
2019-03-30T00:06:46.649Z,10.68
2019-03-30T00:07:20.350Z,10.78
2019-03-30T00:07:54.145Z,11.20
2019-03-30T00:08:27.842Z,11.78
2019-03-30T00:09:01.602Z,10.75
2019-03-30T00:09:35.364Z,10.93
2019-03-30T00:10:09.159Z,10.95
2019-03-30T00:10:42.933Z,10.45
2019-03-30T00:11:16.633Z,11.45
2019-03-30T00:11:50.409Z,10.88
2019-03-30T00:12:24.174Z,11.50
2019-03-30T00:12:57.854Z,11.68
2019-03-30T00:13:31.669Z,10.38
2019-03-30T00:14:05.427Z,10.25
2019-03-30T00:14:39.320Z,11.08
2019-03-30T00:15:13.085Z,10.48
2019-03-30T00:15:47.193Z,10.40
2019-03-30T00:16:21.009Z,9.93
2019-03-30T00:16:54.782Z,10.90
2019-03-30T00:17:28.457Z,10.10
2019-03-30T00:18:02.298Z,11.63
2019-03-30T00:18:36.359Z,11.00
2019-03-30T00:19:10.410Z,11.40
2019-03-30T00:19:44.392Z,11.18
2019-03-30T00:20:18.470Z,10.55
2019-03-30T00:20:52.661Z,11.73
2019-03-30T00:21:26.681Z,12.15
2019-03-30T00:22:00.719Z,11.90
2019-03-30T00:22:37.783Z,12.20
2019-03-30T00:23:11.691Z,11.33
2019-03-30T00:23:45.372Z,11.18
2019-03-30T00:24:19.335Z,10.65
2019-03-30T00:24:53.115Z,11.33
2019-03-30T00:25:26.891Z,12.10
2019-03-30T00:26:00.682Z,10.90
2019-03-30T00:26:34.364Z,11.20
2019-03-30T00:27:08.128Z,12.65
2019-03-30T00:27:41.881Z,11.30
2019-03-30T00:28:15.645Z,11.80
2019-03-30T00:28:49.459Z,12.00
2019-03-30T00:29:23.135Z,11.83
2019-03-30T00:29:56.888Z,10.43
2019-03-30T00:30:30.582Z,12.13
2019-03-30T00:31:04.459Z,12.25
2019-03-30T00:31:38.219Z,10.93
2019-03-30T00:32:11.985Z,10.90
2019-03-30T00:32:45.662Z,11.28
2019-03-30T00:33:19.370Z,10.18
2019-03-30T00:33:53.137Z,11.00
2019-03-30T00:34:26.890Z,11.10
2019-03-30T00:35:00.585Z,11.20
2019-03-30T00:35:34.538Z,9.95
2019-03-30T00:36:08.233Z,11.33
2019-03-30T00:36:41.982Z,11.05
2019-03-30T00:37:15.657Z,10.80
2019-03-30T00:37:49.453Z,10.85
2019-03-30T00:38:23.211Z,11.25
2019-03-30T00:38:56.881Z,11.15
2019-03-30T00:39:30.658Z,10.98
2019-03-30T00:40:04.694Z,11.57
2019-03-30T00:40:38.452Z,11.40
2019-03-30T00:41:12.322Z,11.25
2019-03-30T00:41:46.250Z,11.00
2019-03-30T00:42:21.239Z,11.43
2019-03-30T00:42:55.067Z,11.28
2019-03-30T00:43:28.873Z,11.10
2019-03-30T00:44:02.630Z,11.25
2019-03-30T00:44:36.321Z,10.53
2019-03-30T00:45:10.086Z,10.98
2019-03-30T00:45:43.778Z,11.43
2019-03-30T00:46:17.566Z,10.98
2019-03-30T00:46:51.323Z,10.88
2019-03-30T00:47:24.999Z,10.48
2019-03-30T00:47:58.770Z,10.82
2019-03-30T00:48:32.523Z,10.90
2019-03-30T00:49:06.219Z,11.18
2019-03-30T00:49:48.839Z,10.43
2019-03-30T00:50:15.371Z,10.05
2019-03-30T00:50:49.038Z,10.80
2019-03-30T00:51:22.719Z,10.53
2019-03-30T00:51:56.510Z,10.13
2019-03-30T00:52:30.294Z,9.68
2019-03-30T00:53:04.041Z,11.03
2019-03-30T00:53:37.811Z,9.78
2019-03-30T00:54:11.473Z,9.73
2019-03-30T00:54:45.236Z,10.68
2019-03-30T00:55:19.021Z,10.50
2019-03-30T00:55:52.790Z,10.65
2019-03-30T00:56:26.471Z,9.75
2019-03-30T00:57:00.222Z,9.70
2019-03-30T00:57:33.902Z,10.28
2019-03-30T00:58:07.883Z,11.60
2019-03-30T00:58:41.726Z,11.15
2019-03-30T00:59:15.758Z,9.95
2019-03-30T00:59:49.553Z,10.18
2019-03-30T01:00:23.390Z,9.88
2019-03-30T01:00:57.227Z,10.58
2019-03-30T01:01:31.126Z,11.15
2019-03-30T01:02:04.905Z,10.50
2019-03-30T01:02:38.638Z,9.63
2019-03-30T01:03:12.404Z,10.40
2019-03-30T01:03:46.161Z,10.00
2019-03-30T01:04:19.924Z,10.25
2019-03-30T01:04:53.619Z,10.53
2019-03-30T01:05:27.675Z,9.40
2019-03-30T01:06:01.429Z,9.83
2019-03-30T01:06:35.208Z,9.88
2019-03-30T01:07:08.969Z,10.90
2019-03-30T01:07:42.646Z,10.38
2019-03-30T01:08:16.403Z,10.50
2019-03-30T01:08:50.074Z,9.65
2019-03-30T01:09:23.755Z,10.40
2019-03-30T01:09:57.521Z,10.30
2019-03-30T01:10:31.199Z,10.38
2019-03-30T01:11:04.954Z,9.78
2019-03-30T01:11:38.720Z,10.10
2019-03-30T01:12:12.481Z,10.48
2019-03-30T01:12:46.232Z,9.68
2019-03-30T01:13:19.989Z,11.48
2019-03-30T01:13:53.754Z,10.60
2019-03-30T01:14:27.450Z,10.05
2019-03-30T01:15:01.245Z,9.75
2019-03-30T01:15:35.023Z,10.05
2019-03-30T01:16:08.772Z,9.48
2019-03-30T01:16:43.281Z,11.10
2019-03-30T01:17:17.050Z,9.63
2019-03-30T01:17:50.809Z,10.15
2019-03-30T01:18:24.493Z,9.88
2019-03-30T01:18:58.265Z,10.18
2019-03-30T01:19:32.182Z,10.90
2019-03-30T01:20:06.363Z,9.85
2019-03-30T01:20:40.117Z,10.65
2019-03-30T01:21:13.941Z,10.98
2019-03-30T01:21:47.701Z,10.00
2019-03-30T01:22:21.457Z,9.93
2019-03-30T01:22:55.318Z,10.05
2019-03-30T01:23:29.079Z,10.40
2019-03-30T01:24:02.831Z,10.05
2019-03-30T01:24:36.584Z,9.98
2019-03-30T01:25:10.630Z,10.05
2019-03-30T01:25:44.458Z,10.10
2019-03-30T01:26:18.145Z,11.08
2019-03-30T01:26:51.936Z,11.50
2019-03-30T01:27:25.615Z,9.75
2019-03-30T01:27:59.353Z,10.25
2019-03-30T01:28:33.204Z,10.18
2019-03-30T01:29:07.025Z,10.85
2019-03-30T01:29:40.742Z,10.68
2019-03-30T01:30:22.952Z,11.18
2019-03-30T01:30:50.543Z,9.75
2019-03-30T01:31:24.318Z,10.23
2019-03-30T01:31:58.095Z,10.68
2019-03-30T01:32:34.908Z,10.35
2019-03-30T01:33:07.335Z,9.68
2019-03-30T01:33:41.172Z,10.23
2019-03-30T01:34:14.935Z,9.48
2019-03-30T01:34:48.689Z,11.05
2019-03-30T01:35:22.457Z,10.08
2019-03-30T01:35:56.445Z,10.93
2019-03-30T01:36:30.200Z,10.18
2019-03-30T01:37:03.976Z,11.05
2019-03-30T01:37:37.736Z,10.55
2019-03-30T01:38:11.441Z,9.88
2019-03-30T01:38:45.123Z,10.58
2019-03-30T01:39:18.886Z,10.70
2019-03-30T01:39:52.570Z,9.80
2019-03-30T01:40:26.241Z,10.88
2019-03-30T01:40:59.916Z,10.10
2019-03-30T01:41:33.597Z,10.43
2019-03-30T01:42:08.042Z,10.08
2019-03-30T01:42:41.793Z,9.78
2019-03-30T01:43:15.761Z,10.50
2019-03-30T01:43:49.517Z,10.38
2019-03-30T01:44:23.201Z,9.40
2019-03-30T01:44:57.033Z,10.08
2019-03-30T01:45:30.780Z,10.08
2019-03-30T01:46:04.732Z,10.48
2019-03-30T01:46:38.402Z,9.40
2019-03-30T01:47:12.181Z,9.83
2019-03-30T01:47:45.867Z,11.10
2019-03-30T01:48:19.625Z,10.55
2019-03-30T01:48:53.374Z,9.80
2019-03-30T01:49:27.133Z,10.28
2019-03-30T01:50:00.880Z,9.85
2019-03-30T01:50:34.646Z,10.45
2019-03-30T01:51:08.401Z,10.95
2019-03-30T01:51:42.076Z,10.40
2019-03-30T01:52:16.041Z,9.98
2019-03-30T01:52:49.797Z,10.35
2019-03-30T01:53:23.555Z,10.45
2019-03-30T01:53:57.226Z,9.20
2019-03-30T01:54:30.993Z,10.30
2019-03-30T01:55:04.910Z,10.38
2019-03-30T01:55:38.664Z,9.98
2019-03-30T01:56:12.426Z,10.15
2019-03-30T01:56:46.091Z,10.30
2019-03-30T01:57:19.878Z,9.55
2019-03-30T01:57:54.445Z,10.20
2019-03-30T01:58:28.145Z,9.30
2019-03-30T01:59:03.093Z,9.30
2019-03-30T01:59:36.802Z,10.15
2019-03-30T02:00:11.816Z,10.03
2019-03-30T02:00:45.559Z,10.68
2019-03-30T02:01:19.241Z,10.35
2019-03-30T02:01:52.914Z,10.90
2019-03-30T02:02:26.686Z,10.40
2019-03-30T02:03:00.471Z,10.13
2019-03-30T02:03:34.228Z,11.15
2019-03-30T02:04:07.932Z,10.60
2019-03-30T02:04:41.594Z,9.50
2019-03-30T02:05:15.351Z,9.50
2019-03-30T02:05:49.098Z,9.55
2019-03-30T02:06:22.841Z,10.82
2019-03-30T02:06:56.502Z,9.75
2019-03-30T02:07:30.286Z,10.82
2019-03-30T02:08:04.050Z,10.60
2019-03-30T02:08:37.800Z,10.28
2019-03-30T02:09:11.578Z,10.38
2019-03-30T02:09:45.327Z,11.00
2019-03-30T02:10:33.652Z,9.83
2019-03-30T02:11:07.401Z,10.13
2019-03-30T02:11:41.158Z,9.93
2019-03-30T02:12:14.832Z,10.50
2019-03-30T02:12:48.609Z,8.90
2019-03-30T02:13:22.290Z,10.70
2019-03-30T02:13:56.057Z,10.55
2019-03-30T02:14:29.832Z,10.50
2019-03-30T02:15:04.031Z,10.23
2019-03-30T02:15:38.075Z,10.40
2019-03-30T02:16:11.775Z,10.05
2019-03-30T02:16:45.447Z,9.75
2019-03-30T02:17:20.315Z,10.03
2019-03-30T02:17:54.278Z,9.45
2019-03-30T02:18:28.085Z,10.30
2019-03-30T02:19:01.834Z,9.65
2019-03-30T02:19:35.597Z,9.18
2019-03-30T02:20:10.814Z,10.35
2019-03-30T02:20:46.042Z,10.50
2019-03-30T02:21:19.910Z,10.60
2019-03-30T02:21:53.707Z,9.45
2019-03-30T02:22:27.507Z,10.03
2019-03-30T02:23:01.213Z,10.15
2019-03-30T02:23:34.903Z,9.35
2019-03-30T02:24:08.573Z,10.10
2019-03-30T02:24:42.255Z,10.23
2019-03-30T02:25:15.931Z,9.48
2019-03-30T02:25:49.674Z,10.55
2019-03-30T02:26:23.443Z,10.78
2019-03-30T02:26:57.163Z,9.45
2019-03-30T02:27:30.952Z,10.68
2019-03-30T02:28:06.906Z,10.80
2019-03-30T02:28:40.437Z,10.45
2019-03-30T02:29:14.208Z,9.60
2019-03-30T02:29:47.979Z,10.30
2019-03-30T02:30:21.725Z,9.53
2019-03-30T02:30:55.500Z,10.40
2019-03-30T02:31:29.256Z,9.90
2019-03-30T02:32:03.079Z,9.48
2019-03-30T02:32:36.830Z,10.38
2019-03-30T02:33:10.701Z,9.78
2019-03-30T02:33:44.371Z,9.63
2019-03-30T02:34:18.187Z,10.10
2019-03-30T02:34:51.944Z,9.60
2019-03-30T02:35:26.595Z,10.00
2019-03-30T02:36:00.554Z,10.88
2019-03-30T02:36:34.230Z,10.15
2019-03-30T02:37:07.941Z,10.32
2019-03-30T02:37:41.718Z,9.90
2019-03-30T02:38:15.707Z,9.90
2019-03-30T02:38:49.458Z,10.63
2019-03-30T02:39:23.286Z,9.63
2019-03-30T02:39:56.956Z,10.40
2019-03-30T02:40:30.652Z,10.38
2019-03-30T02:41:04.481Z,9.28
2019-03-30T02:41:38.250Z,10.80
2019-03-30T02:42:11.995Z,10.68
2019-03-30T02:42:45.669Z,10.50
2019-03-30T02:43:19.450Z,10.63
2019-03-30T02:43:53.234Z,9.93
2019-03-30T02:44:26.990Z,9.60
2019-03-30T02:45:00.751Z,9.78
2019-03-30T02:45:34.418Z,10.85
2019-03-30T02:46:08.163Z,11.10
2019-03-30T02:46:41.915Z,10.18
2019-03-30T02:47:15.591Z,9.75
2019-03-30T02:47:49.335Z,9.90
2019-03-30T02:48:23.027Z,10.95
2019-03-30T02:48:56.711Z,11.35
2019-03-30T02:49:30.477Z,10.60
2019-03-30T02:50:04.604Z,10.15
2019-03-30T02:50:49.487Z,10.08
2019-03-30T02:51:13.785Z,10.35
2019-03-30T02:51:47.559Z,10.32
2019-03-30T02:52:21.366Z,10.78
2019-03-30T02:52:55.050Z,9.63
2019-03-30T02:53:29.283Z,11.00
2019-03-30T02:54:03.024Z,11.35
2019-03-30T02:54:36.782Z,9.50
2019-03-30T02:55:12.749Z,10.40
2019-03-30T02:55:45.935Z,9.88
2019-03-30T02:56:19.700Z,10.13
2019-03-30T02:56:53.449Z,10.08
2019-03-30T02:57:27.122Z,10.93
2019-03-30T02:58:00.872Z,10.00
2019-03-30T02:58:34.767Z,10.95
2019-03-30T02:59:08.465Z,10.28
2019-03-30T02:59:42.140Z,9.68
2019-03-30T03:00:16.701Z,10.45
2019-03-30T03:00:50.540Z,10.70
2019-03-30T03:01:24.199Z,9.30
2019-03-30T03:01:57.962Z,10.58
2019-03-30T03:02:31.645Z,10.90
2019-03-30T03:03:05.773Z,10.65
2019-03-30T03:03:39.549Z,8.88
2019-03-30T03:04:13.308Z,10.78
2019-03-30T03:04:47.076Z,10.68
2019-03-30T03:05:21.063Z,10.55
2019-03-30T03:05:55.017Z,10.18
2019-03-30T03:06:28.669Z,11.18
2019-03-30T03:07:02.442Z,10.55
2019-03-30T03:07:36.202Z,10.58
2019-03-30T03:08:09.921Z,10.93
2019-03-30T03:08:43.690Z,11.55
2019-03-30T03:09:17.378Z,10.15
2019-03-30T03:09:51.134Z,10.53
2019-03-30T03:10:24.885Z,9.98
2019-03-30T03:10:58.576Z,10.50
2019-03-30T03:11:32.388Z,10.08
2019-03-30T03:12:06.068Z,11.43
2019-03-30T03:12:39.748Z,11.35
2019-03-30T03:13:13.436Z,10.00
2019-03-30T03:13:47.201Z,10.90
2019-03-30T03:14:21.098Z,11.38
2019-03-30T03:14:54.862Z,10.70
2019-03-30T03:15:28.612Z,10.30
2019-03-30T03:16:02.362Z,11.40
2019-03-30T03:16:36.220Z,10.05
2019-03-30T03:17:09.891Z,11.33
2019-03-30T03:17:43.570Z,11.30
2019-03-30T03:18:17.321Z,11.18
2019-03-30T03:18:51.092Z,11.28
2019-03-30T03:19:24.862Z,10.82
2019-03-30T03:19:58.695Z,11.12
2019-03-30T03:20:32.454Z,10.88
2019-03-30T03:21:08.726Z,11.60
2019-03-30T03:21:41.621Z,10.60
2019-03-30T03:22:15.471Z,11.55
2019-03-30T03:22:49.237Z,10.45
2019-03-30T03:23:22.998Z,10.20
2019-03-30T03:23:57.407Z,10.90
2019-03-30T03:24:31.118Z,10.70
2019-03-30T03:25:05.226Z,10.98
2019-03-30T03:25:39.338Z,10.48
2019-03-30T03:26:13.101Z,10.93
2019-03-30T03:26:46.871Z,10.10
2019-03-30T03:27:20.720Z,11.22
2019-03-30T03:27:54.478Z,10.95
2019-03-30T03:28:28.193Z,11.63
2019-03-30T03:29:02.097Z,12.20
2019-03-30T03:29:35.908Z,10.70
2019-03-30T03:30:10.062Z,10.53
2019-03-30T03:30:43.832Z,11.03
2019-03-30T03:31:17.526Z,11.45
2019-03-30T03:31:51.208Z,11.08
2019-03-30T03:32:25.200Z,11.30
2019-03-30T03:32:58.998Z,11.05
2019-03-30T03:33:32.671Z,11.60
2019-03-30T03:34:06.511Z,11.30
2019-03-30T03:34:40.221Z,10.65
2019-03-30T03:35:14.015Z,10.90
2019-03-30T03:35:47.765Z,10.35
2019-03-30T03:36:21.438Z,11.20
2019-03-30T03:36:55.193Z,11.10
2019-03-30T03:37:43.151Z,11.38
2019-03-30T03:38:04.406Z,9.53
2019-03-30T03:38:38.151Z,10.80
2019-03-30T03:39:11.982Z,10.43
2019-03-30T03:39:45.658Z,11.05
2019-03-30T03:40:19.433Z,10.20
2019-03-30T03:40:53.187Z,10.93
2019-03-30T03:41:26.926Z,10.63
2019-03-30T03:42:00.689Z,10.75
2019-03-30T03:42:34.711Z,10.72
2019-03-30T03:43:08.613Z,10.03
2019-03-30T03:43:42.513Z,10.30
2019-03-30T03:44:17.201Z,9.95
2019-03-30T03:44:50.952Z,10.63
2019-03-30T03:45:24.725Z,10.88
2019-03-30T03:45:58.452Z,10.40
2019-03-30T03:46:32.285Z,10.48
2019-03-30T03:47:05.951Z,11.20
2019-03-30T03:47:39.717Z,10.20
2019-03-30T03:48:13.403Z,10.32
2019-03-30T03:48:47.392Z,10.38
2019-03-30T03:49:21.075Z,10.13
2019-03-30T03:49:54.748Z,10.78
2019-03-30T03:50:34.496Z,11.30
2019-03-30T03:51:25.114Z,10.32
2019-03-30T03:51:43.936Z,10.75
2019-03-30T03:52:17.678Z,10.90
2019-03-30T03:52:51.529Z,10.30
2019-03-30T03:53:25.294Z,10.30
2019-03-30T03:54:00.198Z,10.38
2019-03-30T03:54:34.015Z,10.90
2019-03-30T03:55:07.932Z,10.55
2019-03-30T03:55:41.875Z,9.33
2019-03-30T03:56:15.731Z,10.88
2019-03-30T03:56:49.483Z,11.33
2019-03-30T03:57:24.130Z,10.13
2019-03-30T03:57:57.881Z,10.38
2019-03-30T03:58:33.718Z,10.28
2019-03-30T03:59:07.992Z,10.78
2019-03-30T03:59:42.140Z,10.30
2019-03-30T04:00:15.900Z,10.18
2019-03-30T04:00:50.957Z,9.70
2019-03-30T04:01:25.567Z,11.05
2019-03-30T04:02:00.023Z,11.33
2019-03-30T04:02:35.650Z,9.90
2019-03-30T04:03:10.202Z,10.45
2019-03-30T04:03:44.256Z,10.28
2019-03-30T04:04:18.982Z,9.60
2019-03-30T04:04:53.893Z,10.25
2019-03-30T04:05:28.439Z,9.53
2019-03-30T04:06:04.346Z,10.10
2019-03-30T04:06:39.090Z,10.18
2019-03-30T04:07:13.127Z,10.18
2019-03-30T04:07:47.780Z,10.45
2019-03-30T04:08:22.993Z,10.82
2019-03-30T04:08:58.221Z,9.53
2019-03-30T04:09:32.575Z,9.40
2019-03-30T04:10:06.421Z,11.03
2019-03-30T04:10:40.776Z,10.05
2019-03-30T04:11:15.257Z,9.48
2019-03-30T04:11:50.466Z,10.03
2019-03-30T04:12:24.229Z,10.78
2019-03-30T04:12:59.437Z,11.40
2019-03-30T04:13:33.205Z,10.13
2019-03-30T04:14:08.520Z,10.78
2019-03-30T04:14:44.969Z,9.48
2019-03-30T04:15:24.857Z,10.68
2019-03-30T04:15:58.634Z,10.65
2019-03-30T04:16:32.403Z,10.50
2019-03-30T04:17:06.147Z,10.50
2019-03-30T04:17:39.897Z,10.20
2019-03-30T04:18:13.840Z,10.60
2019-03-30T04:18:48.378Z,10.30
2019-03-30T04:19:22.527Z,10.45
2019-03-30T04:19:56.234Z,10.65
2019-03-30T04:20:29.906Z,11.00
2019-03-30T04:21:03.676Z,10.98
2019-03-30T04:21:44.092Z,10.65
2019-03-30T04:22:12.865Z,9.75
2019-03-30T04:22:46.668Z,9.93
2019-03-30T04:23:20.421Z,9.78
2019-03-30T04:23:54.571Z,10.15
2019-03-30T04:24:28.450Z,11.00
2019-03-30T04:25:02.811Z,10.48
2019-03-30T04:25:36.914Z,10.55
2019-03-30T04:26:10.590Z,10.95
2019-03-30T04:26:44.403Z,10.20
2019-03-30T04:27:18.110Z,9.98
2019-03-30T04:27:51.880Z,10.18
2019-03-30T04:28:25.630Z,10.13
2019-03-30T04:28:59.306Z,10.90
2019-03-30T04:29:33.050Z,11.60
2019-03-30T04:30:08.114Z,10.32
2019-03-30T04:30:41.891Z,10.35
2019-03-30T04:31:15.626Z,10.18
2019-03-30T04:31:49.393Z,10.78
2019-03-30T04:32:23.078Z,9.38
2019-03-30T04:32:56.843Z,11.30
2019-03-30T04:33:30.691Z,11.18
2019-03-30T04:34:04.457Z,10.08
2019-03-30T04:34:38.182Z,10.70
2019-03-30T04:35:12.455Z,10.20
2019-03-30T04:35:46.123Z,11.25
2019-03-30T04:36:19.794Z,9.35
2019-03-30T04:36:53.462Z,11.45
2019-03-30T04:37:27.133Z,11.50
2019-03-30T04:38:00.802Z,11.08
2019-03-30T04:38:34.556Z,9.88
2019-03-30T04:39:08.307Z,10.00
2019-03-30T04:39:41.970Z,10.32
2019-03-30T04:40:16.202Z,10.30
2019-03-30T04:40:49.881Z,9.60
2019-03-30T04:41:23.641Z,11.28
2019-03-30T04:41:57.329Z,10.40
2019-03-30T04:42:31.008Z,10.60
2019-03-30T04:43:04.745Z,10.82
2019-03-30T04:43:38.418Z,10.55
2019-03-30T04:44:12.164Z,10.90
2019-03-30T04:44:45.933Z,11.48
2019-03-30T04:45:19.638Z,9.53
2019-03-30T04:45:53.326Z,10.65
2019-03-30T04:46:27.254Z,10.28
2019-03-30T04:47:01.011Z,9.70
2019-03-30T04:47:34.678Z,10.65
2019-03-30T04:48:08.466Z,10.08
2019-03-30T04:48:42.298Z,11.75
2019-03-30T04:49:15.973Z,9.73
2019-03-30T04:49:49.722Z,9.88
2019-03-30T04:50:23.495Z,10.65
2019-03-30T04:50:57.251Z,10.60
2019-03-30T04:51:31.007Z,10.13
2019-03-30T04:52:04.684Z,10.85
2019-03-30T04:52:38.350Z,10.10
2019-03-30T04:53:12.033Z,10.30
2019-03-30T04:53:45.776Z,10.40
2019-03-30T04:54:19.634Z,10.10
2019-03-30T04:54:53.315Z,9.95
2019-03-30T04:55:27.285Z,10.93
2019-03-30T04:56:00.954Z,10.60
2019-03-30T04:56:34.715Z,9.63
2019-03-30T04:57:08.385Z,9.13
2019-03-30T04:57:42.137Z,10.68
2019-03-30T04:58:15.802Z,11.57
2019-03-30T04:58:49.470Z,10.38
2019-03-30T04:59:23.141Z,11.55
2019-03-30T04:59:56.892Z,10.53
2019-03-30T05:00:30.861Z,10.98
2019-03-30T05:01:04.604Z,11.25
2019-03-30T05:01:38.274Z,11.12
2019-03-30T05:02:12.025Z,10.68
2019-03-30T05:02:45.777Z,9.98
2019-03-30T05:03:19.450Z,9.90
2019-03-30T05:03:53.127Z,10.35
2019-03-30T05:04:26.798Z,10.78
2019-03-30T05:05:00.562Z,10.78
2019-03-30T05:05:34.874Z,10.90
2019-03-30T05:06:08.618Z,10.55
2019-03-30T05:06:42.294Z,10.45
2019-03-30T05:07:16.082Z,10.13
2019-03-30T05:07:49.742Z,9.70
2019-03-30T05:08:23.491Z,10.30
2019-03-30T05:08:57.227Z,9.40
2019-03-30T05:09:30.903Z,9.53
2019-03-30T05:10:04.819Z,10.05
2019-03-30T05:10:38.500Z,9.40
2019-03-30T05:11:12.238Z,9.30
2019-03-30T05:11:45.908Z,9.45
2019-03-30T05:12:19.661Z,9.10
2019-03-30T05:12:53.334Z,9.63
2019-03-30T05:13:27.090Z,9.35
2019-03-30T05:14:00.774Z,9.88
2019-03-30T05:14:34.761Z,9.23
2019-03-30T05:15:08.718Z,9.80
2019-03-30T05:15:42.414Z,8.70
2019-03-30T05:16:16.078Z,9.83
2019-03-30T05:16:49.745Z,10.18
2019-03-30T05:17:23.420Z,8.75
2019-03-30T05:17:57.169Z,10.88
2019-03-30T05:18:30.910Z,9.40
2019-03-30T05:19:04.585Z,9.48
2019-03-30T05:19:38.436Z,9.75
2019-03-30T05:20:12.384Z,8.88
2019-03-30T05:20:46.166Z,9.55
2019-03-30T05:21:19.916Z,9.95
2019-03-30T05:21:53.710Z,9.45
2019-03-30T05:22:27.374Z,8.60
2019-03-30T05:23:01.118Z,9.18
2019-03-30T05:23:34.864Z,9.55
2019-03-30T05:24:08.537Z,9.50
2019-03-30T05:24:42.277Z,9.53
2019-03-30T05:25:16.225Z,9.75
2019-03-30T05:25:49.978Z,8.70
2019-03-30T05:26:23.653Z,9.50
2019-03-30T05:26:57.405Z,9.10
2019-03-30T05:27:31.147Z,8.90
2019-03-30T05:28:04.890Z,9.03
2019-03-30T05:28:38.557Z,9.53
2019-03-30T05:29:12.313Z,9.70
2019-03-30T05:29:45.979Z,9.15
2019-03-30T05:30:19.721Z,10.05
2019-03-30T05:30:54.299Z,9.73
2019-03-30T05:31:27.966Z,10.45
2019-03-30T05:32:01.743Z,9.05
2019-03-30T05:32:35.477Z,9.20
2019-03-30T05:33:09.239Z,8.40
2019-03-30T05:33:42.898Z,9.38
2019-03-30T05:34:16.726Z,9.25
2019-03-30T05:34:50.389Z,9.50
2019-03-30T05:35:24.314Z,9.75
2019-03-30T05:35:58.081Z,9.70
2019-03-30T05:36:31.846Z,9.75
2019-03-30T05:37:05.523Z,9.65
2019-03-30T05:37:39.332Z,9.13
2019-03-30T05:38:13.199Z,9.60
2019-03-30T05:38:46.862Z,9.45
2019-03-30T05:39:20.535Z,9.05
2019-03-30T05:39:54.273Z,8.65
2019-03-30T05:40:27.951Z,10.23
2019-03-30T05:41:01.643Z,9.70
2019-03-30T05:41:35.320Z,9.85
2019-03-30T05:42:09.084Z,9.88
2019-03-30T05:42:42.844Z,10.00
2019-03-30T05:43:16.619Z,10.15
2019-03-30T05:43:50.280Z,10.95
2019-03-30T05:44:23.953Z,10.10
2019-03-30T05:44:58.093Z,9.65
2019-03-30T05:45:32.057Z,10.50
2019-03-30T05:46:05.814Z,10.28
2019-03-30T05:46:39.522Z,10.23
2019-03-30T05:47:13.258Z,10.30
2019-03-30T05:47:46.917Z,9.30
2019-03-30T05:48:20.666Z,9.50
2019-03-30T05:48:54.333Z,10.85
2019-03-30T05:49:28.000Z,9.78
2019-03-30T05:50:01.670Z,10.93
2019-03-30T05:50:35.337Z,10.13
2019-03-30T05:51:09.106Z,9.93
2019-03-30T05:51:42.770Z,9.73
2019-03-30T05:52:26.311Z,9.23
2019-03-30T05:52:51.902Z,9.50
2019-03-30T05:53:25.677Z,9.50
2019-03-30T05:53:59.390Z,10.20
2019-03-30T05:54:33.144Z,10.80
2019-03-30T05:55:07.097Z,11.25
2019-03-30T05:55:41.041Z,10.40
2019-03-30T05:56:14.805Z,10.30
2019-03-30T05:56:48.486Z,10.38
2019-03-30T05:57:22.246Z,10.75
2019-03-30T05:57:56.006Z,10.75
2019-03-30T05:58:29.705Z,9.58
2019-03-30T05:59:03.374Z,9.95
2019-03-30T05:59:37.062Z,11.20
2019-03-30T06:00:12.689Z,10.50
2019-03-30T06:00:46.357Z,9.70
2019-03-30T06:01:21.226Z,10.63
2019-03-30T06:01:54.978Z,10.00
2019-03-30T06:02:28.738Z,9.75
2019-03-30T06:03:02.491Z,10.58
2019-03-30T06:03:36.230Z,11.10
2019-03-30T06:04:09.985Z,9.60
2019-03-30T06:04:43.666Z,9.80
2019-03-30T06:05:17.349Z,9.33
2019-03-30T06:05:51.018Z,9.35
2019-03-30T06:06:24.787Z,11.20
2019-03-30T06:06:58.549Z,10.93
2019-03-30T06:07:32.225Z,10.45
2019-03-30T06:08:06.590Z,9.95
2019-03-30T06:08:40.481Z,9.73
2019-03-30T06:09:14.157Z,10.30
2019-03-30T06:09:47.830Z,10.70
2019-03-30T06:10:21.507Z,10.85
2019-03-30T06:10:55.259Z,10.18
2019-03-30T06:11:29.029Z,10.35
2019-03-30T06:12:02.794Z,11.12
2019-03-30T06:12:36.461Z,9.85
2019-03-30T06:13:10.154Z,9.50
2019-03-30T06:13:43.891Z,9.45
2019-03-30T06:14:17.546Z,9.63
2019-03-30T06:14:51.217Z,10.85
2019-03-30T06:15:24.969Z,9.95
2019-03-30T06:15:58.736Z,9.75
2019-03-30T06:16:32.426Z,10.15
2019-03-30T06:17:06.095Z,10.45
2019-03-30T06:17:39.842Z,9.85
2019-03-30T06:18:13.516Z,10.08
2019-03-30T06:18:47.270Z,9.93
2019-03-30T06:19:21.015Z,9.38
2019-03-30T06:19:54.777Z,9.33
2019-03-30T06:20:28.526Z,10.93
2019-03-30T06:21:02.277Z,9.98
2019-03-30T06:21:36.038Z,9.73
2019-03-30T06:22:09.798Z,9.50
2019-03-30T06:22:43.504Z,10.15
2019-03-30T06:23:17.257Z,10.08
2019-03-30T06:23:50.930Z,9.38
2019-03-30T06:24:24.597Z,11.22
2019-03-30T06:24:58.357Z,10.05
2019-03-30T06:25:32.101Z,10.28
2019-03-30T06:26:05.850Z,9.95
2019-03-30T06:26:39.627Z,9.43
2019-03-30T06:27:13.364Z,9.65
2019-03-30T06:27:47.034Z,9.55
2019-03-30T06:28:20.702Z,10.28
2019-03-30T06:28:54.371Z,10.28
2019-03-30T06:29:28.054Z,10.05
2019-03-30T06:30:14.761Z,10.63
2019-03-30T06:30:48.518Z,10.68
2019-03-30T06:31:22.195Z,10.32
2019-03-30T06:31:56.013Z,9.93
2019-03-30T06:32:29.879Z,11.22
2019-03-30T06:33:03.649Z,10.95
2019-03-30T06:33:37.336Z,12.15
2019-03-30T06:34:11.081Z,11.03
2019-03-30T06:34:44.750Z,11.10
2019-03-30T06:35:18.551Z,12.13
2019-03-30T06:35:52.210Z,10.35
2019-03-30T06:36:25.884Z,11.15
2019-03-30T06:37:00.373Z,11.90
2019-03-30T06:37:34.129Z,12.10
2019-03-30T06:38:07.894Z,10.35
2019-03-30T06:38:41.650Z,11.53
2019-03-30T06:39:15.317Z,11.53
2019-03-30T06:39:49.081Z,9.95
2019-03-30T06:40:22.838Z,10.58
2019-03-30T06:40:56.505Z,10.60
2019-03-30T06:41:30.237Z,11.93
2019-03-30T06:42:04.615Z,11.63
2019-03-30T06:42:38.368Z,12.00
2019-03-30T06:43:12.129Z,11.85
2019-03-30T06:43:45.871Z,13.55
2019-03-30T06:44:19.530Z,12.82
2019-03-30T06:44:53.210Z,12.43
2019-03-30T06:45:26.958Z,13.05
2019-03-30T06:46:00.907Z,12.80
2019-03-30T06:46:34.724Z,13.70
2019-03-30T06:47:08.609Z,13.15
2019-03-30T06:47:42.391Z,15.00
2019-03-30T06:48:16.146Z,13.85
2019-03-30T06:48:49.813Z,13.30
2019-03-30T06:49:23.487Z,16.32
2019-03-30T06:49:57.251Z,16.87
2019-03-30T06:50:31.018Z,16.27
2019-03-30T06:51:04.702Z,15.93
2019-03-30T06:51:38.442Z,15.88
2019-03-30T06:52:12.229Z,16.77
2019-03-30T06:52:56.748Z,16.65
2019-03-30T06:53:21.409Z,16.97
2019-03-30T06:53:55.087Z,16.60
2019-03-30T06:54:28.779Z,17.07
2019-03-30T06:55:02.542Z,16.75
2019-03-30T06:55:36.305Z,17.05
2019-03-30T06:56:09.990Z,17.50
2019-03-30T06:56:43.657Z,17.92
2019-03-30T06:57:17.482Z,18.37
2019-03-30T06:57:51.255Z,18.85
2019-03-30T06:58:25.010Z,20.55
2019-03-30T06:58:58.776Z,18.75
2019-03-30T06:59:32.454Z,19.77
2019-03-30T07:00:07.740Z,22.42
2019-03-30T07:00:41.482Z,21.52
2019-03-30T07:01:15.236Z,22.50
2019-03-30T07:01:49.234Z,20.23
2019-03-30T07:02:23.589Z,20.95
2019-03-30T07:02:57.549Z,20.90
2019-03-30T07:03:31.503Z,21.15
2019-03-30T07:04:05.372Z,20.23
2019-03-30T07:04:39.279Z,21.12
2019-03-30T07:05:13.194Z,20.15
2019-03-30T07:05:47.399Z,23.40
2019-03-30T07:06:21.494Z,25.65
2019-03-30T07:06:56.163Z,29.72
2019-03-30T07:07:30.648Z,29.70
2019-03-30T07:08:04.465Z,29.23
2019-03-30T07:08:40.181Z,28.20
2019-03-30T07:09:15.358Z,26.40
2019-03-30T07:09:51.038Z,29.87
2019-03-30T07:10:25.017Z,37.63
2019-03-30T07:10:59.370Z,39.78
2019-03-30T07:11:35.102Z,40.28
2019-03-30T07:12:09.940Z,37.20
2019-03-30T07:12:44.978Z,38.25
2019-03-30T07:13:20.051Z,30.17
2019-03-30T07:13:56.185Z,27.37
2019-03-30T07:14:32.883Z,29.32
2019-03-30T07:15:08.049Z,34.53
2019-03-30T07:15:47.088Z,35.17
2019-03-30T07:16:22.687Z,32.48
2019-03-30T07:17:17.812Z,37.63
2019-03-30T07:17:53.799Z,37.08
2019-03-30T07:18:29.013Z,37.00
2019-03-30T07:19:04.858Z,37.75
2019-03-30T07:19:41.317Z,37.58
2019-03-30T07:20:25.373Z,50.55
2019-03-30T07:21:00.489Z,41.10
2019-03-30T07:21:35.479Z,36.15
2019-03-30T07:22:10.340Z,49.03